Time;durP1;ratioP1;P1;durP2;ratioP2;P2;SDS_P1;SDS_P2;PMS_P1;PMS_P2;Temp;Humidity;BMP_temperature;BMP_pressure;BME280_temperature;BME280_humidity;BME280_pressure;Samples;Min_cycle;Max_cycle;Signal;HPM_P1;HPM_P2
2023/03/08 00:01:38;;;;;;;13.63;9.10;;;5.00;44.30;;;;;;5146142;27;20203;-80
2023/03/08 00:04:05;;;;;;;13.73;8.93;;;5.00;44.30;;;;;;5149815;27;20217;-79
2023/03/08 00:06:32;;;;;;;16.27;8.20;;;4.90;44.40;;;;;;5144690;27;20199;-80
2023/03/08 00:09:01;;;;;;;14.27;8.03;;;4.90;44.20;;;;;;5150103;27;20211;-80
2023/03/08 00:11:29;;;;;;;13.23;8.70;;;4.90;44.20;;;;;;5148751;27;20195;-79
2023/03/08 00:13:56;;;;;;;14.60;8.70;;;4.90;44.20;;;;;;5143066;27;20207;-81
2023/03/08 00:16:23;;;;;;;14.87;8.87;;;4.90;44.20;;;;;;5144638;27;20658;-79
2023/03/08 00:18:51;;;;;;;15.63;8.63;;;4.80;45.50;;;;;;5149580;27;20210;-79
2023/03/08 00:21:19;;;;;;;14.53;8.47;;;4.80;44.20;;;;;;5157557;27;20206;-80
2023/03/08 00:23:46;;;;;;;15.50;8.73;;;4.80;44.20;;;;;;5144975;27;20257;-80
2023/03/08 00:26:13;;;;;;;13.57;7.87;;;4.90;44.20;;;;;;5144567;27;20293;-79
2023/03/08 00:28:40;;;;;;;14.00;8.17;;;4.90;44.20;;;;;;5142839;27;20190;-81
2023/03/08 00:31:08;;;;;;;12.03;8.13;;;4.70;44.00;;;;;;5148429;27;20198;-79
2023/03/08 00:33:36;;;;;;;13.27;8.60;;;4.80;44.10;;;;;;5151321;27;20210;-79
2023/03/08 00:36:07;;;;;;;13.73;8.47;;;4.70;44.10;;;;;;5148003;27;20655;-79
2023/03/08 00:38:35;;;;;;;12.47;7.80;;;4.60;44.70;;;;;;5149282;27;20205;-81
2023/03/08 00:41:02;;;;;;;12.27;8.27;;;4.50;45.20;;;;;;5139506;27;20198;-79
2023/03/08 00:43:29;;;;;;;12.73;8.10;;;4.50;44.90;;;;;;5151811;27;20198;-79
2023/03/08 00:45:56;;;;;;;11.97;7.83;;;4.50;45.30;;;;;;5146481;27;20204;-80
2023/03/08 00:48:23;;;;;;;10.90;7.60;;;4.50;46.30;;;;;;5137713;27;20192;-79
2023/03/08 00:50:50;;;;;;;16.47;8.00;;;4.50;44.60;;;;;;5148288;27;20206;-80
2023/03/08 00:53:18;;;;;;;14.20;7.87;;;4.50;45.30;;;;;;5138919;27;20213;-79
2023/03/08 00:55:49;;;;;;;13.00;7.87;;;4.50;46.70;;;;;;5149098;27;20248;-79
2023/03/08 00:58:16;;;;;;;12.63;7.37;;;4.50;45.00;;;;;;5150014;27;20222;-79
2023/03/08 01:00:44;;;;;;;11.00;7.23;;;4.50;44.60;;;;;;5145802;27;20259;-79
2023/03/08 01:03:12;;;;;;;14.50;7.47;;;4.40;45.30;;;;;;5146435;27;20194;-79
2023/03/08 01:05:40;;;;;;;12.37;7.23;;;4.50;43.90;;;;;;5142715;27;20222;-79
2023/03/08 01:08:07;;;;;;;11.37;7.37;;;4.40;43.80;;;;;;5138656;27;20597;-79
2023/03/08 01:10:35;;;;;;;13.63;7.77;;;4.50;45.10;;;;;;5147256;27;20195;-79
2023/03/08 01:13:02;;;;;;;14.27;7.60;;;4.50;44.30;;;;;;5149542;27;20205;-79
2023/03/08 01:15:29;;;;;;;12.83;7.37;;;4.50;43.90;;;;;;5149752;27;20203;-79
2023/03/08 01:17:56;;;;;;;11.50;7.27;;;4.50;44.00;;;;;;5145660;27;20202;-79
2023/03/08 01:20:23;;;;;;;11.57;7.20;;;4.50;44.00;;;;;;5148095;27;20199;-80
2023/03/08 01:22:50;;;;;;;11.10;6.93;;;4.50;43.90;;;;;;5147661;27;20237;-79
2023/03/08 01:25:16;;;;;;;11.57;7.43;;;4.40;43.80;;;;;;5153640;27;20225;-79
2023/03/08 01:27:45;;;;;;;13.70;8.10;;;4.40;43.80;;;;;;5145560;27;20214;-84
2023/03/08 01:30:12;;;;;;;11.43;7.30;;;4.30;45.50;;;;;;5142836;27;20196;-79
2023/03/08 01:32:39;;;;;;;11.53;7.07;;;4.30;46.30;;;;;;5152163;27;20205;-79
2023/03/08 01:35:07;;;;;;;11.83;7.60;;;4.20;46.00;;;;;;5146247;27;20211;-79
2023/03/08 01:37:34;;;;;;;13.07;8.10;;;4.10;45.70;;;;;;5154453;27;20566;-79
2023/03/08 01:40:02;;;;;;;12.17;7.13;;;4.10;46.20;;;;;;5145303;27;20291;-79
2023/03/08 01:42:29;;;;;;;11.60;7.67;;;4.00;47.40;;;;;;5149850;27;20199;-80
2023/03/08 01:45:00;;;;;;;12.03;7.27;;;4.00;47.90;;;;;;5146854;27;20593;-82
2023/03/08 01:47:28;;;;;;;10.47;7.30;;;3.90;49.10;;;;;;5148396;27;20620;-80
2023/03/08 01:49:58;;;;;;;10.93;7.03;;;3.90;49.70;;;;;;5152770;27;20198;-79
2023/03/08 01:52:29;;;;;;;12.33;7.60;;;3.80;50.30;;;;;;5146769;27;20195;-80
2023/03/08 01:54:58;;;;;;;14.40;7.43;;;3.80;51.30;;;;;;5152583;27;20212;-79
2023/03/08 01:57:28;;;;;;;13.57;7.47;;;3.70;51.70;;;;;;5147315;27;20194;-80
2023/03/08 02:00:03;;;;;;;11.70;7.60;;;3.80;51.90;;;;;;5148066;27;20190;-80
2023/03/08 02:02:37;;;;;;;14.43;7.80;;;3.70;52.70;;;;;;5153867;27;20658;-81
2023/03/08 02:05:03;;;;;;;12.13;7.33;;;3.70;52.90;;;;;;5147855;27;20774;-80
2023/03/08 02:07:30;;;;;;;11.10;7.60;;;3.70;53.70;;;;;;5145259;27;20212;-79
2023/03/08 02:09:57;;;;;;;11.40;7.47;;;3.60;54.10;;;;;;5144269;27;20202;-79
2023/03/08 02:12:25;;;;;;;14.20;8.07;;;3.60;54.40;;;;;;5145875;27;20201;-79
2023/03/08 02:14:53;;;;;;;11.17;7.73;;;3.70;53.10;;;;;;5149760;27;20638;-79
2023/03/08 02:17:22;;;;;;;12.57;7.70;;;3.60;54.10;;;;;;5146824;27;20842;-79
2023/03/08 02:19:53;;;;;;;12.07;7.77;;;3.60;54.60;;;;;;5148711;27;20205;-80
2023/03/08 02:22:21;;;;;;;13.83;7.67;;;3.50;55.90;;;;;;5150648;27;20218;-79
2023/03/08 02:24:49;;;;;;;11.97;7.77;;;3.50;55.50;;;;;;5140970;27;20230;-79
2023/03/08 02:27:19;;;;;;;13.57;8.10;;;3.50;55.50;;;;;;5148629;27;20654;-79
2023/03/08 02:29:46;;;;;;;11.47;7.47;;;3.50;56.20;;;;;;5141756;27;20199;-79
2023/03/08 02:32:14;;;;;;;11.47;7.30;;;3.50;56.00;;;;;;5143672;27;20215;-82
2023/03/08 02:34:41;;;;;;;11.80;7.67;;;3.40;56.10;;;;;;5148928;27;20287;-81
2023/03/08 02:37:08;;;;;;;11.43;7.07;;;3.40;56.90;;;;;;5152266;27;20203;-83
2023/03/08 02:39:35;;;;;;;11.40;8.00;;;3.30;58.70;;;;;;5149803;27;20200;-78
2023/03/08 02:42:04;;;;;;;13.40;8.33;;;3.40;57.60;;;;;;5149187;27;20207;-79
2023/03/08 02:44:30;;;;;;;11.80;8.00;;;3.30;57.80;;;;;;5145761;27;20225;-81
2023/03/08 02:46:57;;;;;;;11.57;7.87;;;3.30;58.20;;;;;;5153397;27;20214;-80
2023/03/08 02:49:25;;;;;;;12.63;8.10;;;3.30;59.00;;;;;;5145212;27;20285;-80
2023/03/08 02:51:52;;;;;;;14.90;8.57;;;3.20;59.80;;;;;;5142872;27;20195;-79
2023/03/08 02:54:19;;;;;;;15.43;8.60;;;3.20;61.00;;;;;;5142717;27;20195;-79
2023/03/08 02:56:46;;;;;;;12.47;8.27;;;3.20;59.40;;;;;;5155261;27;20210;-80
2023/03/08 02:59:14;;;;;;;12.23;7.83;;;3.20;60.00;;;;;;5147545;27;20548;-79
2023/03/08 03:01:41;;;;;;;14.70;8.23;;;3.10;62.30;;;;;;5148567;27;20207;-79
2023/03/08 03:04:07;;;;;;;14.80;8.40;;;3.10;61.30;;;;;;5148613;27;20289;-79
2023/03/08 03:06:34;;;;;;;13.77;8.50;;;3.10;62.60;;;;;;5148402;27;20233;-79
2023/03/08 03:09:01;;;;;;;11.73;7.63;;;3.10;62.10;;;;;;5146638;27;20205;-79
2023/03/08 03:11:28;;;;;;;13.83;8.40;;;3.10;63.00;;;;;;5153089;27;20202;-80
2023/03/08 03:13:56;;;;;;;13.07;8.10;;;3.00;65.70;;;;;;5151408;27;20191;-78
2023/03/08 03:16:25;;;;;;;13.20;8.00;;;3.00;65.80;;;;;;5144919;27;20793;-79
2023/03/08 03:18:53;;;;;;;12.20;8.03;;;3.00;67.60;;;;;;5151898;27;20195;-79
2023/03/08 03:21:20;;;;;;;13.97;8.50;;;3.10;64.20;;;;;;5148362;27;20256;-79
2023/03/08 03:23:47;;;;;;;15.30;8.13;;;3.10;63.80;;;;;;5150106;27;20201;-79
2023/03/08 03:26:15;;;;;;;14.00;8.60;;;3.10;64.50;;;;;;5138022;27;20238;-79
2023/03/08 03:28:43;;;;;;;13.13;8.30;;;3.00;67.80;;;;;;5146122;27;21057;-78
2023/03/08 03:31:12;;;;;;;13.43;7.93;;;2.90;67.50;;;;;;5145523;27;20199;-78
2023/03/08 03:33:40;;;;;;;15.57;8.40;;;2.90;67.50;;;;;;5147027;27;20195;-84
2023/03/08 03:36:10;;;;;;;13.67;7.97;;;2.90;67.50;;;;;;5148858;27;20201;-79
2023/03/08 03:38:37;;;;;;;14.17;8.27;;;2.90;67.50;;;;;;5148257;27;20195;-80
2023/03/08 03:41:05;;;;;;;14.43;8.03;;;2.80;67.40;;;;;;5146861;27;20247;-79
2023/03/08 03:43:32;;;;;;;14.50;8.40;;;2.90;67.50;;;;;;5146551;27;20206;-79
2023/03/08 03:46:00;;;;;;;16.37;8.80;;;2.90;67.50;;;;;;5150192;27;20221;-80
2023/03/08 03:48:27;;;;;;;14.30;8.37;;;2.90;67.50;;;;;;5136567;27;20206;-79
2023/03/08 03:50:57;;;;;;;13.00;8.40;;;2.90;67.50;;;;;;5127304;27;20245;-80
2023/03/08 03:53:25;;;;;;;14.53;8.57;;;2.90;69.00;;;;;;5152687;27;20216;-79
2023/03/08 03:55:52;;;;;;;17.70;9.30;;;2.90;67.50;;;;;;5125154;27;20627;-79
2023/03/08 03:58:18;;;;;;;15.37;8.73;;;2.90;67.50;;;;;;5148804;27;20190;-79
2023/03/08 04:00:45;;;;;;;15.47;8.83;;;2.90;67.50;;;;;;5139145;27;20209;-82
2023/03/08 04:03:12;;;;;;;12.57;8.60;;;2.90;67.60;;;;;;5146043;27;20542;-79
2023/03/08 04:05:39;;;;;;;17.70;8.97;;;3.00;67.60;;;;;;5143313;27;20225;-79
2023/03/08 04:08:08;;;;;;;13.13;7.93;;;3.00;67.60;;;;;;5146746;27;20207;-79
2023/03/08 04:10:35;;;;;;;14.03;8.33;;;3.00;67.60;;;;;;5148955;27;20229;-82
2023/03/08 04:13:01;;;;;;;13.07;8.90;;;3.10;67.80;;;;;;5145239;27;20211;-79
2023/03/08 04:15:28;;;;;;;15.27;8.50;;;3.00;67.60;;;;;;5150490;27;20233;-80
2023/03/08 04:17:55;;;;;;;13.57;8.63;;;2.90;67.60;;;;;;5146915;27;20202;-80
2023/03/08 04:20:22;;;;;;;16.17;8.97;;;2.90;69.80;;;;;;5147208;27;20452;-79
2023/03/08 04:22:49;;;;;;;13.90;8.83;;;2.90;69.80;;;;;;5150159;27;20218;-79
2023/03/08 04:25:17;;;;;;;13.30;8.30;;;3.00;68.20;;;;;;5149827;27;20224;-79
2023/03/08 04:27:44;;;;;;;14.43;9.13;;;3.00;71.20;;;;;;5142197;27;20202;-79
2023/03/08 04:30:13;;;;;;;14.77;9.20;;;3.00;70.70;;;;;;5132972;27;20639;-79
2023/03/08 04:32:40;;;;;;;14.67;9.17;;;2.90;70.30;;;;;;5145191;27;20191;-79
2023/03/08 04:35:07;;;;;;;17.67;9.63;;;2.80;70.00;;;;;;5143866;27;20203;-80
2023/03/08 04:37:35;;;;;;;15.67;9.63;;;2.80;72.00;;;;;;5141151;27;20220;-79
2023/03/08 04:40:05;;;;;;;14.60;9.10;;;2.80;73.40;;;;;;5146643;27;20239;-79
2023/03/08 04:42:33;;;;;;;14.30;8.97;;;2.70;73.60;;;;;;5143859;27;20221;-79
2023/03/08 04:45:00;;;;;;;15.27;8.70;;;2.70;73.80;;;;;;5151010;27;20578;-79
2023/03/08 04:47:27;;;;;;;16.77;9.63;;;2.70;75.20;;;;;;5147020;27;20198;-79
2023/03/08 04:49:53;;;;;;;12.70;8.23;;;2.70;75.90;;;;;;5149214;27;20198;-79
2023/03/08 04:52:20;;;;;;;16.20;9.07;;;2.80;73.50;;;;;;5144562;27;20187;-79
2023/03/08 04:54:47;;;;;;;15.20;8.37;;;2.80;72.80;;;;;;5149103;27;20191;-79
2023/03/08 04:57:14;;;;;;;14.67;8.67;;;2.80;73.40;;;;;;5142049;27;20202;-80
2023/03/08 04:59:43;;;;;;;17.20;8.33;;;2.80;72.40;;;;;;5149739;27;20194;-79
2023/03/08 05:02:10;;;;;;;17.20;9.67;;;2.80;74.40;;;;;;5131839;27;20609;-79
2023/03/08 05:04:37;;;;;;;13.47;8.57;;;2.90;75.30;;;;;;5150181;27;20472;-79
2023/03/08 05:07:03;;;;;;;15.43;9.27;;;2.80;75.70;;;;;;5155449;27;20218;-79
2023/03/08 05:09:30;;;;;;;14.90;9.53;;;3.00;72.90;;;;;;5149056;27;20191;-78
2023/03/08 05:11:58;;;;;;;15.47;9.83;;;2.90;72.40;;;;;;5149145;27;20582;-79
2023/03/08 05:14:25;;;;;;;18.90;10.00;;;2.90;75.90;;;;;;5152956;27;20294;-78
2023/03/08 05:16:55;;;;;;;16.53;9.80;;;2.80;76.60;;;;;;5152321;27;20225;-78
2023/03/08 05:19:21;;;;;;;15.77;9.40;;;2.80;75.90;;;;;;5152260;27;20271;-79
2023/03/08 05:21:48;;;;;;;17.97;10.57;;;2.80;76.40;;;;;;5157014;27;20214;-78
2023/03/08 05:24:15;;;;;;;16.87;10.33;;;2.80;77.10;;;;;;5153435;27;20199;-78
2023/03/08 05:26:42;;;;;;;18.60;10.00;;;2.80;77.60;;;;;;5154296;27;20218;-78
2023/03/08 05:29:09;;;;;;;17.23;10.30;;;2.80;79.10;;;;;;5155011;27;20583;-77
2023/03/08 05:31:36;;;;;;;16.83;10.20;;;2.70;79.50;;;;;;5147585;27;20843;-78
2023/03/08 05:34:04;;;;;;;15.90;10.20;;;2.70;79.70;;;;;;5150075;27;20570;-79
2023/03/08 05:36:31;;;;;;;16.73;10.93;;;2.70;79.50;;;;;;5154908;27;20214;-78
2023/03/08 05:38:58;;;;;;;16.30;10.53;;;2.70;79.10;;;;;;5154430;27;20194;-78
2023/03/08 05:41:25;;;;;;;15.97;10.50;;;2.70;80.00;;;;;;5148553;27;20195;-78
2023/03/08 05:43:51;;;;;;;17.27;10.93;;;2.70;80.40;;;;;;5146334;27;20186;-78
2023/03/08 05:46:19;;;;;;;17.63;10.37;;;2.70;79.80;;;;;;5146255;27;20215;-83
2023/03/08 05:48:47;;;;;;;18.67;10.53;;;2.70;80.20;;;;;;5149375;27;20198;-78
2023/03/08 05:51:17;;;;;;;16.60;11.07;;;2.80;79.10;;;;;;5154318;27;20195;-82
2023/03/08 05:53:45;;;;;;;18.03;10.30;;;2.90;78.90;;;;;;5146247;27;20240;-78
2023/03/08 05:56:13;;;;;;;20.43;11.10;;;2.90;78.20;;;;;;5149674;27;20202;-79
2023/03/08 05:58:40;;;;;;;21.67;10.87;;;2.90;79.00;;;;;;5151205;27;20191;-79
2023/03/08 06:01:16;;;;;;;21.03;10.87;;;3.00;78.60;;;;;;5147011;27;20199;-78
2023/03/08 06:03:43;;;;;;;25.33;11.80;;;3.00;77.80;;;;;;5152111;27;20218;-78
2023/03/08 06:06:10;;;;;;;22.80;11.40;;;3.00;79.30;;;;;;5149999;27;20229;-80
2023/03/08 06:08:38;;;;;;;18.83;11.67;;;3.00;79.70;;;;;;5149610;27;20209;-78
2023/03/08 06:11:05;;;;;;;20.20;11.53;;;3.10;79.50;;;;;;5146150;27;20208;-78
2023/03/08 06:13:32;;;;;;;23.00;11.20;;;3.00;80.20;;;;;;5146656;27;20201;-79
2023/03/08 06:16:00;;;;;;;19.17;11.33;;;3.00;80.40;;;;;;5147174;27;20191;-81
2023/03/08 06:18:27;;;;;;;21.17;11.43;;;3.10;80.20;;;;;;5146356;27;20677;-82
2023/03/08 06:20:58;;;;;;;21.23;11.80;;;3.10;80.50;;;;;;5150580;27;20681;-81
2023/03/08 06:23:26;;;;;;;20.63;11.40;;;3.10;81.50;;;;;;5142002;27;20217;-78
2023/03/08 06:25:54;;;;;;;18.50;11.60;;;3.00;80.80;;;;;;5131157;27;20227;-78
2023/03/08 06:28:22;;;;;;;17.67;10.53;;;3.10;81.10;;;;;;5152107;27;20191;-79
2023/03/08 06:30:49;;;;;;;20.20;11.43;;;3.10;81.00;;;;;;5148031;27;20673;-79
2023/03/08 06:33:16;;;;;;;21.70;11.73;;;3.10;81.80;;;;;;5145232;27;20186;-79
2023/03/08 06:35:43;;;;;;;19.63;11.27;;;3.20;81.70;;;;;;5141589;27;20258;-81
2023/03/08 06:38:10;;;;;;;18.87;11.50;;;3.30;82.50;;;;;;5146180;27;20198;-85
2023/03/08 06:40:37;;;;;;;22.70;11.10;;;3.40;82.40;;;;;;5135780;27;20199;-82
2023/03/08 06:43:05;;;;;;;21.50;11.03;;;3.50;82.30;;;;;;5148964;27;20203;-78
2023/03/08 06:45:32;;;;;;;18.90;11.37;;;3.80;81.30;;;;;;5148945;27;20837;-78
2023/03/08 06:48:00;;;;;;;19.50;11.13;;;3.90;78.50;;;;;;5147853;27;20222;-78
2023/03/08 06:50:26;;;;;;;20.03;11.70;;;4.00;79.00;;;;;;5151419;27;20226;-78
2023/03/08 06:52:54;;;;;;;20.70;11.67;;;4.00;78.30;;;;;;5148075;27;20650;-80
2023/03/08 06:55:21;;;;;;;22.20;12.13;;;4.00;80.40;;;;;;5148073;27;20195;-78
2023/03/08 06:57:48;;;;;;;21.63;12.30;;;3.90;79.60;;;;;;5143844;27;20194;-80
2023/03/08 07:00:17;;;;;;;22.10;11.77;;;4.00;79.70;;;;;;5141412;27;20191;-78
2023/03/08 07:02:44;;;;;;;22.23;12.17;;;4.10;78.40;;;;;;5149771;27;20194;-80
2023/03/08 07:05:11;;;;;;;20.70;11.83;;;4.20;77.00;;;;;;5152503;27;20212;-77
2023/03/08 07:07:38;;;;;;;21.07;12.17;;;4.30;76.00;;;;;;5146352;27;20222;-80
2023/03/08 07:10:07;;;;;;;20.70;12.00;;;4.40;76.20;;;;;;5139003;27;20270;-80
2023/03/08 07:12:38;;;;;;;19.53;12.03;;;4.40;76.10;;;;;;5137673;27;20685;-81
2023/03/08 07:15:06;;;;;;;19.63;12.50;;;4.40;76.70;;;;;;5137457;27;20194;-80
2023/03/08 07:17:34;;;;;;;24.37;12.67;;;4.40;76.50;;;;;;5142673;27;20728;-80
2023/03/08 07:20:03;;;;;;;20.30;12.17;;;4.40;76.10;;;;;;5148132;27;20232;-80
2023/03/08 07:22:30;;;;;;;19.40;12.10;;;4.50;77.10;;;;;;5150310;27;20225;-79
2023/03/08 07:24:57;;;;;;;19.57;11.23;;;4.60;74.00;;;;;;5147206;27;20195;-80
2023/03/08 07:27:23;;;;;;;20.27;11.33;;;4.60;74.40;;;;;;5150866;27;20226;-80
2023/03/08 07:29:50;;;;;;;17.37;11.30;;;4.70;72.60;;;;;;5146847;27;20680;-79
2023/03/08 07:32:17;;;;;;;22.73;11.17;;;4.80;70.90;;;;;;5151882;27;20202;-80
2023/03/08 07:34:45;;;;;;;18.10;12.00;;;4.80;69.50;;;;;;5151243;27;20199;-80
2023/03/08 07:37:12;;;;;;;19.17;10.90;;;4.80;69.50;;;;;;5151963;27;20199;-80
2023/03/08 07:39:39;;;;;;;18.40;10.90;;;4.80;74.90;;;;;;5146257;27;20218;-80
2023/03/08 07:42:06;;;;;;;19.07;11.83;;;4.80;69.50;;;;;;5152914;27;20772;-80
2023/03/08 07:44:33;;;;;;;19.13;11.30;;;4.80;69.60;;;;;;5124667;27;20203;-80
2023/03/08 07:47:00;;;;;;;18.77;11.27;;;4.90;69.60;;;;;;5149364;27;20227;-80
2023/03/08 07:49:27;;;;;;;21.03;10.80;;;4.90;72.30;;;;;;5148910;27;20195;-81
2023/03/08 07:51:55;;;;;;;17.77;11.10;;;4.90;73.60;;;;;;5148946;27;20187;-80
2023/03/08 07:54:22;;;;;;;16.93;10.77;;;5.10;69.80;;;;;;5152195;27;20565;-80
2023/03/08 07:56:49;;;;;;;20.10;11.50;;;5.20;70.00;;;;;;5146743;27;20206;-80
2023/03/08 07:59:16;;;;;;;21.33;11.63;;;5.50;66.40;;;;;;5151080;27;20187;-82
2023/03/08 08:01:42;;;;;;;22.45;11.35;;;5.70;64.30;;;;;;5150488;27;20202;-82
2023/03/08 08:04:11;;;;;;;19.40;11.03;;;6.00;62.00;;;;;;5145941;27;20201;-82
2023/03/08 08:06:38;;;;;;;25.87;11.80;;;5.90;57.40;;;;;;5151926;27;20253;-80
2023/03/08 08:09:07;;;;;;;20.80;11.05;;;5.90;61.80;;;;;;5155447;27;20190;-80
2023/03/08 08:11:34;;;;;;;16.52;11.07;;;5.80;57.90;;;;;;5151605;27;20194;-80
2023/03/08 08:14:02;;;;;;;16.57;10.67;;;5.90;58.10;;;;;;5154911;27;20194;-82
2023/03/08 08:16:28;;;;;;;15.45;10.63;;;5.90;59.20;;;;;;5139512;27;20647;-80
2023/03/08 08:18:55;;;;;;;46.20;12.33;;;6.00;55.20;;;;;;5147766;27;20210;-83
2023/03/08 08:21:22;;;;;;;15.30;10.48;;;6.10;55.40;;;;;;5149737;27;20621;-81
2023/03/08 08:23:49;;;;;;;17.95;10.23;;;6.40;53.00;;;;;;5147330;27;20205;-81
2023/03/08 08:26:20;;;;;;;17.55;10.25;;;6.60;52.00;;;;;;5149079;27;20596;-82
2023/03/08 08:28:49;;;;;;;19.02;10.35;;;7.10;48.10;;;;;;5144971;27;20194;-83
2023/03/08 08:31:18;;;;;;;15.55;10.60;;;6.80;45.70;;;;;;5149446;27;20198;-82
2023/03/08 08:33:45;;;;;;;16.70;10.23;;;6.90;45.80;;;;;;5151066;27;20666;-81
2023/03/08 08:36:14;;;;;;;17.17;10.68;;;6.80;45.70;;;;;;5153162;27;20202;-80
2023/03/08 08:38:42;;;;;;;19.00;10.98;;;7.00;44.30;;;;;;5154203;27;20205;-81
2023/03/08 08:41:09;;;;;;;19.88;10.60;;;6.70;45.70;;;;;;5155439;27;20558;-80
2023/03/08 08:43:37;;;;;;;16.92;10.20;;;6.70;45.70;;;;;;5155845;27;20194;-80
2023/03/08 08:46:05;;;;;;;15.18;10.25;;;6.70;45.70;;;;;;5156837;27;20240;-82
2023/03/08 08:48:32;;;;;;;15.23;10.05;;;6.90;45.80;;;;;;5153105;27;20198;-82
2023/03/08 08:51:00;;;;;;;17.40;10.32;;;7.00;45.90;;;;;;5150196;27;20206;-83
2023/03/08 08:53:27;;;;;;;15.32;10.05;;;7.10;42.70;;;;;;5152710;27;20209;-82
2023/03/08 08:55:54;;;;;;;14.38;9.48;;;6.90;41.20;;;;;;5156715;27;20202;-82
2023/03/08 08:58:22;;;;;;;17.33;9.85;;;7.00;42.30;;;;;;5148952;27;20202;-82
2023/03/08 09:00:50;;;;;;;15.80;9.68;;;7.10;39.80;;;;;;5137016;27;20195;-82
2023/03/08 09:03:17;;;;;;;12.25;8.95;;;7.10;39.10;;;;;;5152662;27;20198;-82
2023/03/08 09:05:45;;;;;;;13.50;9.40;;;7.20;38.50;;;;;;5150870;27;20209;-83
2023/03/08 09:08:13;;;;;;;12.82;9.20;;;7.20;39.10;;;;;;5145434;27;20237;-83
2023/03/08 09:10:41;;;;;;;14.93;8.85;;;7.30;38.30;;;;;;5155409;27;20537;-81
2023/03/08 09:13:08;;;;;;;13.02;8.68;;;7.50;38.50;;;;;;5147835;27;20206;-79
2023/03/08 09:15:36;;;;;;;12.60;8.50;;;7.00;38.10;;;;;;5154880;27;20642;-81
2023/03/08 09:18:05;;;;;;;17.85;9.57;;;7.30;38.30;;;;;;5154795;27;20231;-81
2023/03/08 09:20:31;;;;;;;14.07;10.15;;;7.30;38.80;;;;;;5155388;27;20203;-81
2023/03/08 09:22:58;;;;;;;17.27;10.50;;;7.30;39.60;;;;;;5153472;27;20218;-81
2023/03/08 09:25:25;;;;;;;17.40;10.95;;;7.20;38.30;;;;;;5150622;27;20243;-84
2023/03/08 09:27:52;;;;;;;19.17;11.07;;;7.20;38.70;;;;;;5148879;27;20586;-81
2023/03/08 09:30:19;;;;;;;20.05;11.18;;;7.20;39.30;;;;;;5150367;27;20202;-80
2023/03/08 09:32:46;;;;;;;16.08;11.80;;;7.00;40.40;;;;;;5154102;27;20198;-80
2023/03/08 09:35:15;;;;;;;19.10;12.30;;;7.00;40.60;;;;;;5148712;27;20191;-78
2023/03/08 09:37:42;;;;;;;19.20;12.47;;;6.90;42.00;;;;;;5150904;27;20194;-79
2023/03/08 09:40:19;;;;;;;18.40;11.87;;;7.00;43.20;;;;;;5155011;27;20194;-79
2023/03/08 09:42:45;;;;;;;20.75;12.40;;;7.10;43.50;;;;;;5155159;27;20202;-80
2023/03/08 09:45:23;;;;;;;19.52;12.45;;;7.30;42.70;;;;;;5147707;27;20285;-81
2023/03/08 09:47:55;;;;;;;20.17;12.50;;;7.50;41.70;;;;;;5155490;27;20210;-81
2023/03/08 09:50:45;;;;;;;18.58;12.65;;;7.40;41.60;;;;;;5152899;27;20191;-81
2023/03/08 09:53:24;;;;;;;20.15;12.07;;;7.70;42.30;;;;;;5139357;27;20196;-81
2023/03/08 09:55:55;;;;;;;20.00;12.80;;;7.80;39.50;;;;;;5139232;27;20827;-81
2023/03/08 09:58:32;;;;;;;18.75;12.18;;;7.60;40.10;;;;;;5149568;27;20206;-80
2023/03/08 10:01:09;;;;;;;17.80;12.52;;;7.70;41.00;;;;;;5145276;27;20198;-80
2023/03/08 10:04:11;;;;;;;19.08;12.60;;;7.70;41.80;;;;;;5145453;27;20195;-81
2023/03/08 10:06:47;;;;;;;18.20;12.32;;;7.90;39.50;;;;;;5158001;27;20217;-82
2023/03/08 10:09:26;;;;;;;18.73;12.15;;;8.00;38.00;;;;;;5149213;27;20198;-82
2023/03/08 10:12:00;;;;;;;17.50;12.70;;;8.30;38.10;;;;;;5151923;27;20198;-81
2023/03/08 10:14:32;;;;;;;19.70;12.32;;;8.70;37.20;;;;;;5151798;27;20608;-81
2023/03/08 10:17:03;;;;;;;22.83;12.55;;;8.90;33.70;;;;;;5145185;27;20207;-81
2023/03/08 10:19:37;;;;;;;19.83;11.77;;;8.90;31.90;;;;;;5154805;27;20285;-81
2023/03/08 10:22:09;;;;;;;16.45;11.55;;;8.50;31.60;;;;;;5154577;27;20582;-80
2023/03/08 10:24:42;;;;;;;19.38;11.80;;;8.00;32.90;;;;;;5154393;27;20191;-81
2023/03/08 10:27:18;;;;;;;16.77;12.02;;;8.00;34.20;;;;;;5149176;27;20250;-81
2023/03/08 10:29:50;;;;;;;17.48;12.70;;;7.90;34.60;;;;;;5150731;27;20190;-81
2023/03/08 10:32:17;;;;;;;17.55;11.88;;;8.00;34.20;;;;;;5155527;27;20534;-81
2023/03/08 10:34:44;;;;;;;17.90;11.90;;;8.10;34.10;;;;;;5149474;27;20191;-81
2023/03/08 10:37:13;;;;;;;18.15;12.05;;;8.10;34.00;;;;;;5152876;27;20198;-83
2023/03/08 10:39:51;;;;;;;20.67;12.77;;;8.20;34.40;;;;;;5142663;27;20252;-84
2023/03/08 10:42:21;;;;;;;18.40;12.73;;;8.30;34.90;;;;;;5150102;27;20682;-83
2023/03/08 10:44:55;;;;;;;15.93;11.38;;;8.40;35.20;;;;;;5151750;27;20642;-83
2023/03/08 10:47:24;;;;;;;21.38;12.13;;;8.50;33.50;;;;;;5151294;27;20214;-83
2023/03/08 10:50:04;;;;;;;15.07;11.05;;;8.50;33.90;;;;;;5142626;27;20579;-84
2023/03/08 10:52:32;;;;;;;17.45;11.75;;;8.70;33.50;;;;;;5133595;27;20570;-84
2023/03/08 10:55:04;;;;;;;19.17;12.15;;;8.70;32.80;;;;;;5147629;27;20540;-84
2023/03/08 10:57:31;;;;;;;17.02;11.68;;;8.70;32.70;;;;;;5150724;27;20224;-87
2023/03/08 11:00:11;;;;;;;20.15;12.32;;;8.70;33.50;;;;;;5126767;27;20254;-82
2023/03/08 11:02:40;;;;;;;21.15;12.98;;;8.70;35.60;;;;;;5150329;27;20195;-82
2023/03/08 11:05:19;;;;;;;20.13;12.25;;;8.60;34.40;;;;;;5127806;27;20203;-84
2023/03/08 11:07:52;;;;;;;18.70;12.20;;;8.50;36.40;;;;;;5146012;27;20301;-85
2023/03/08 11:10:22;;;;;;;16.90;11.68;;;8.50;40.10;;;;;;5152650;27;20203;-83
2023/03/08 11:13:00;;;;;;;18.38;11.77;;;8.60;47.20;;;;;;5155968;27;20199;-84
2023/03/08 11:15:30;;;;;;;12.90;9.90;;;8.60;47.20;;;;;;5147780;27;20217;-84
2023/03/08 11:18:03;;;;;;;13.45;9.50;;;8.40;50.10;;;;;;5149685;27;20229;-84
2023/03/08 11:20:36;;;;;;;16.30;9.38;;;8.40;49.00;;;;;;5151343;27;20592;-83
2023/03/08 11:23:15;;;;;;;16.13;10.07;;;8.30;51.70;;;;;;5149027;27;20701;-85
2023/03/08 11:25:45;;;;;;;15.73;10.00;;;8.10;55.10;;;;;;5152233;27;20277;-84
2023/03/08 11:28:52;;;;;;;15.43;10.50;;;8.00;53.40;;;;;;5148788;27;20241;-81
2023/03/08 11:31:29;;;;;;;13.50;8.68;;;7.90;59.10;;;;;;5147704;27;20206;-82
2023/03/08 11:34:28;;;;;;;12.65;8.07;;;7.90;58.40;;;;;;5151328;27;20720;-80
2023/03/08 11:37:02;;;;;;;8.68;6.57;;;7.90;65.30;;;;;;5147383;27;20201;-81
2023/03/08 11:39:33;;;;;;;10.77;7.07;;;7.90;63.60;;;;;;5151291;27;20190;-81
2023/03/08 11:42:09;;;;;;;11.85;6.63;;;8.00;63.00;;;;;;5148607;27;20210;-81
2023/03/08 11:44:49;;;;;;;11.63;8.50;;;8.10;62.20;;;;;;5152252;27;20201;-82
2023/03/08 11:47:42;;;;;;;14.75;8.10;;;8.10;65.00;;;;;;5148407;27;20558;-81
2023/03/08 11:50:19;;;;;;;14.27;8.82;;;8.10;61.80;;;;;;5143271;27;20214;-82
2023/03/08 11:52:56;;;;;;;12.40;8.15;;;8.10;64.70;;;;;;5151567;27;20194;-82
2023/03/08 11:55:36;;;;;;;14.38;8.48;;;8.20;63.30;;;;;;5127692;27;20194;-81
2023/03/08 11:58:09;;;;;;;12.18;8.18;;;8.30;62.60;;;;;;5149877;27;20230;-82
2023/03/08 12:00:39;;;;;;;10.88;7.78;;;8.30;58.60;;;;;;5156592;27;20212;-80
2023/03/08 12:03:12;;;;;;;9.70;7.03;;;8.40;58.10;;;;;;5152875;27;20209;-80
2023/03/08 12:05:43;;;;;;;10.90;7.30;;;8.50;60.60;;;;;;5145003;27;20230;-81
2023/03/08 12:08:16;;;;;;;12.23;7.68;;;8.50;57.90;;;;;;5154009;27;20232;-80
2023/03/08 12:10:48;;;;;;;10.02;7.18;;;8.50;57.40;;;;;;5145918;27;20210;-81
2023/03/08 12:13:20;;;;;;;10.82;6.85;;;8.60;59.70;;;;;;5130255;27;20251;-82
2023/03/08 12:15:52;;;;;;;9.35;6.45;;;8.80;60.20;;;;;;5142256;27;20210;-82
2023/03/08 12:18:25;;;;;;;12.23;6.82;;;8.70;63.20;;;;;;5148589;27;20213;-81
2023/03/08 12:21:01;;;;;;;10.82;6.55;;;8.70;63.00;;;;;;5150095;27;20191;-81
2023/03/08 12:23:36;;;;;;;9.57;6.78;;;8.80;66.40;;;;;;5129608;27;20274;-81
2023/03/08 12:26:10;;;;;;;7.97;6.10;;;9.00;62.50;;;;;;5151779;27;20186;-81
2023/03/08 12:28:43;;;;;;;10.63;5.90;;;9.10;59.40;;;;;;5152172;27;20221;-80
2023/03/08 12:31:24;;;;;;;8.82;6.18;;;9.20;59.90;;;;;;5151088;27;20190;-80
2023/03/08 12:33:52;;;;;;;9.23;6.03;;;9.20;61.40;;;;;;5151949;27;20199;-80
2023/03/08 12:36:21;;;;;;;7.40;5.70;;;9.40;60.00;;;;;;5155256;27;20191;-81
2023/03/08 12:38:54;;;;;;;9.25;5.15;;;9.50;57.10;;;;;;5127695;27;20202;-81
2023/03/08 12:41:26;;;;;;;8.18;5.20;;;9.60;55.90;;;;;;5149051;27;20197;-81
2023/03/08 12:44:05;;;;;;;9.60;4.90;;;9.90;52.30;;;;;;5133984;27;20247;-81
2023/03/08 12:46:48;;;;;;;8.73;4.97;;;10.00;51.40;;;;;;5149640;27;20707;-81
2023/03/08 12:49:25;;;;;;;7.28;4.75;;;10.10;46.90;;;;;;5126793;27;20230;-81
2023/03/08 12:52:01;;;;;;;7.50;4.93;;;10.20;47.00;;;;;;5145615;27;20583;-81
2023/03/08 12:54:31;;;;;;;6.68;5.05;;;10.30;47.10;;;;;;5147277;27;20186;-81